KHII/HII METAR and TAF weather

Enter ICAO airport designator
Station Type Date Time Source
KHII METAR 2019/08/25 06:30 UTC NOAA

KHII 250630Z AUTO 20009KT 10SM SCT050 35/18 A2988 RMK AO2


Station Type Date Time Source
KHII Decoded METAR 2019/08/25 06:30 UTC NOAA

Station name not available
Aug 25, 2019 - 02:30 AM EDT / 2019.08.25 0630 UTC
Wind: from the SSW (200 degrees) at 10 MPH (9 KT):0
Visibility: 10 mile(s):0
Sky conditions: partly cloudy
Temperature: 95 F (35 C)
Heat index: 97.0 F (36.1 C):1
Dew Point: 64 F (18 C)
Relative Humidity: 36%
Pressure (altimeter): 29.88 in. Hg (1011 hPa)
ob: KHII 250630Z AUTO 20009KT 10SM SCT050 35/18 A2988 RMK AO2
cycle: 6

Station Type Date Time Source
KHII TAF UTC NOAA

Error!

Example: see airport list